createdAt,value
2019-01-06T00:01:33.089Z,99563.84
2019-01-06T00:04:26.442Z,99569.30
2019-01-06T00:07:20.416Z,99572.66
2019-01-06T00:10:10.795Z,99565.94
2019-01-06T00:13:04.194Z,99576.28
2019-01-06T00:15:54.788Z,99583.20
2019-01-06T00:18:51.215Z,99583.13
2019-01-06T00:21:41.846Z,99590.92
2019-01-06T00:24:30.579Z,99575.96
2019-01-06T00:27:28.347Z,99588.97
2019-01-06T00:30:14.980Z,99579.88
2019-01-06T00:33:01.530Z,99576.95
2019-01-06T00:36:00.791Z,99584.39
2019-01-06T00:38:54.433Z,99576.80
2019-01-06T00:41:40.715Z,99586.42
2019-01-06T00:44:27.286Z,99581.09
2019-01-06T00:47:17.867Z,99584.98
2019-01-06T00:50:08.680Z,99586.85
2019-01-06T00:53:05.585Z,99586.77
2019-01-06T00:55:51.996Z,99592.56
2019-01-06T00:58:54.947Z,99584.99
2019-01-06T01:01:48.550Z,99584.07
2019-01-06T01:04:45.581Z,99582.20
2019-01-06T01:07:40.716Z,99576.61
2019-01-06T01:10:27.820Z,99586.62
2019-01-06T01:13:18.524Z,99582.20
2019-01-06T01:16:09.431Z,99575.85
2019-01-06T01:18:49.918Z,99576.72
2019-01-06T01:21:42.539Z,99586.97
2019-01-06T01:24:36.154Z,99579.92
2019-01-06T01:27:19.162Z,99582.50
2019-01-06T01:30:19.083Z,99579.76
2019-01-06T01:33:07.912Z,99594.56
2019-01-06T01:35:54.128Z,99593.94
2019-01-06T01:38:45.628Z,99589.09
2019-01-06T01:41:29.612Z,99581.36
2019-01-06T01:44:16.040Z,99592.31
2019-01-06T01:47:22.059Z,99600.34
2019-01-06T01:50:08.410Z,99598.03
2019-01-06T01:52:51.620Z,99598.01
2019-01-06T01:55:40.396Z,99599.66
2019-01-06T01:58:28.050Z,99607.72
2019-01-06T02:01:31.322Z,99596.05
2019-01-06T02:04:31.210Z,99609.73
2019-01-06T02:07:17.715Z,99600.94
2019-01-06T02:10:04.375Z,99599.37
2019-01-06T02:12:55.030Z,99601.83
2019-01-06T02:15:40.793Z,99605.41
2019-01-06T02:18:44.049Z,99612.28
2019-01-06T02:21:30.627Z,99611.13
2019-01-06T02:24:36.864Z,99606.95
2019-01-06T02:27:30.180Z,99604.92
2019-01-06T02:30:18.086Z,99618.48
2019-01-06T02:33:17.651Z,99614.83
2019-01-06T02:36:06.694Z,99615.59
2019-01-06T02:38:56.662Z,99611.97
2019-01-06T02:41:42.826Z,99608.98
2019-01-06T02:44:45.385Z,99625.83
2019-01-06T02:47:32.295Z,99613.06
2019-01-06T02:50:22.625Z,99603.48
2019-01-06T02:53:16.237Z,99608.91
2019-01-06T02:56:16.421Z,99610.48
2019-01-06T02:59:02.971Z,99613.80
2019-01-06T03:02:09.415Z,99607.45
2019-01-06T03:04:53.204Z,99614.41
2019-01-06T03:07:41.093Z,99608.15
2019-01-06T03:10:27.656Z,99605.16
2019-01-06T03:13:14.118Z,99611.78
2019-01-06T03:16:09.211Z,99595.30
2019-01-06T03:18:55.451Z,99594.27
2019-01-06T03:21:46.720Z,99591.28
2019-01-06T03:24:32.939Z,99593.45
2019-01-06T03:27:12.172Z,99583.11
2019-01-06T03:29:58.742Z,99597.05
2019-01-06T03:32:45.390Z,99587.91
2019-01-06T03:35:42.007Z,99584.99
2019-01-06T03:38:41.856Z,99582.95
2019-01-06T03:41:36.111Z,99578.97
2019-01-06T03:44:22.636Z,99579.42
2019-01-06T03:47:17.982Z,99582.87
2019-01-06T03:50:11.681Z,99589.36
2019-01-06T03:53:02.065Z,99568.99
2019-01-06T03:56:00.530Z,99576.64
2019-01-06T03:58:51.127Z,99569.32
2019-01-06T04:01:35.351Z,99574.83
2019-01-06T04:04:23.316Z,99578.13
2019-01-06T04:07:10.161Z,99572.81
2019-01-06T04:10:16.316Z,99571.78
2019-01-06T04:13:02.851Z,99567.61
2019-01-06T04:15:53.591Z,99589.30
2019-01-06T04:18:40.026Z,99569.81
2019-01-06T04:21:33.619Z,99579.92
2019-01-06T04:24:27.708Z,99573.90
2019-01-06T04:27:25.905Z,99569.97
2019-01-06T04:30:14.747Z,99579.48
2019-01-06T04:33:02.614Z,99568.61
2019-01-06T04:35:48.019Z,99566.95
2019-01-06T04:38:41.377Z,99572.06
2019-01-06T04:41:31.714Z,99575.45
2019-01-06T04:44:13.175Z,99557.93
2019-01-06T04:47:03.514Z,99565.41
2019-01-06T04:49:50.209Z,99569.45
2019-01-06T04:52:36.604Z,99568.27
2019-01-06T04:55:16.140Z,99570.48
2019-01-06T04:58:00.922Z,99573.63
2019-01-06T05:00:46.809Z,99566.91
2019-01-06T05:03:46.926Z,99568.29
2019-01-06T05:06:36.890Z,99575.69
2019-01-06T05:09:25.382Z,99571.70
2019-01-06T05:12:12.946Z,99570.42
2019-01-06T05:15:18.423Z,99578.92
2019-01-06T05:18:21.421Z,99571.16
2019-01-06T05:21:15.239Z,99562.29
2019-01-06T05:24:02.019Z,99550.12
2019-01-06T05:26:58.391Z,99563.36
2019-01-06T05:29:41.994Z,99566.44
2019-01-06T05:32:20.307Z,99574.14
2019-01-06T05:35:06.451Z,99574.50
2019-01-06T05:38:06.181Z,99572.73
2019-01-06T05:40:52.764Z,99574.17
2019-01-06T05:43:52.771Z,99575.09
2019-01-06T05:46:35.224Z,99567.64
2019-01-06T05:49:25.599Z,99564.46
2019-01-06T05:52:11.946Z,99574.32
2019-01-06T05:55:09.041Z,99568.73
2019-01-06T05:57:58.013Z,99583.00
2019-01-06T06:00:48.623Z,99581.37
2019-01-06T06:03:35.067Z,99585.34
2019-01-06T06:06:30.372Z,99589.55
2019-01-06T06:09:33.085Z,99590.12
2019-01-06T06:12:19.644Z,99586.06
2019-01-06T06:15:09.847Z,99591.90
2019-01-06T06:18:05.381Z,99579.59
2019-01-06T06:20:48.855Z,99589.27
2019-01-06T06:23:49.054Z,99590.53
2019-01-06T06:26:35.787Z,99592.92
2019-01-06T06:29:22.226Z,99594.22
2019-01-06T06:32:02.280Z,99600.91
2019-01-06T06:34:59.105Z,99603.05
2019-01-06T06:38:04.675Z,99606.34
2019-01-06T06:40:51.694Z,99601.58
2019-01-06T06:43:46.167Z,99611.84
2019-01-06T06:46:38.749Z,99608.97
2019-01-06T06:49:38.977Z,99608.05
2019-01-06T06:52:32.571Z,99613.91
2019-01-06T06:55:19.237Z,99621.40
2019-01-06T06:58:25.969Z,99618.16
2019-01-06T07:01:44.161Z,99626.91
2019-01-06T07:04:30.957Z,99632.51
2019-01-06T07:07:32.246Z,99630.91
2019-01-06T07:10:14.213Z,99634.38
2019-01-06T07:13:00.787Z,99637.58
2019-01-06T07:15:51.150Z,99637.08
2019-01-06T07:18:43.526Z,99649.58
2019-01-06T07:21:39.827Z,99642.67
2019-01-06T07:24:42.539Z,99641.68
2019-01-06T07:27:30.804Z,99648.72
2019-01-06T07:30:21.107Z,99650.47
2019-01-06T07:33:28.078Z,99660.74
2019-01-06T07:36:18.659Z,99657.43
2019-01-06T07:39:18.123Z,99662.66
2019-01-06T07:42:17.391Z,99657.64
2019-01-06T07:45:03.829Z,99665.62
2019-01-06T07:48:00.739Z,99659.11
2019-01-06T07:50:51.355Z,99663.97
2019-01-06T07:53:40.491Z,99671.95
2019-01-06T07:56:34.839Z,99664.63
2019-01-06T07:59:18.825Z,99669.03
2019-01-06T08:02:18.464Z,99670.17
2019-01-06T08:05:11.917Z,99676.19
2019-01-06T08:08:00.795Z,99677.66
2019-01-06T08:10:59.148Z,99675.84
2019-01-06T08:13:45.959Z,99682.40
2019-01-06T08:16:34.314Z,99681.13
2019-01-06T08:19:18.360Z,99685.88
2019-01-06T08:22:18.086Z,99691.48
2019-01-06T08:25:08.458Z,99688.25
2019-01-06T08:27:54.670Z,99696.59
2019-01-06T08:30:51.534Z,99695.00
2019-01-06T08:33:43.130Z,99695.51
2019-01-06T08:36:29.271Z,99696.16
2019-01-06T08:39:15.732Z,99688.88
2019-01-06T08:42:02.196Z,99702.80
2019-01-06T08:44:48.937Z,99703.13
2019-01-06T08:47:35.148Z,99702.37
2019-01-06T08:50:24.757Z,99704.78
2019-01-06T08:53:24.481Z,99706.78
2019-01-06T08:56:32.403Z,99699.72
2019-01-06T08:59:29.027Z,99709.09
2019-01-06T09:02:13.752Z,99708.41
2019-01-06T09:05:07.523Z,99707.67
2019-01-06T09:07:54.090Z,99713.38
2019-01-06T09:10:43.760Z,99705.33
2019-01-06T09:13:31.665Z,99715.80
2019-01-06T09:16:18.786Z,99712.23
2019-01-06T09:19:05.182Z,99712.69
2019-01-06T09:22:09.451Z,99714.53
2019-01-06T09:24:56.049Z,99722.84
2019-01-06T09:27:55.989Z,99720.74
2019-01-06T09:30:55.424Z,99732.80
2019-01-06T09:33:49.013Z,99724.00
2019-01-06T09:36:36.695Z,99732.41
2019-01-06T09:39:26.150Z,99740.20
2019-01-06T09:42:14.551Z,99729.81
2019-01-06T09:45:06.245Z,99732.45
2019-01-06T09:48:01.272Z,99731.86
2019-01-06T09:50:49.208Z,99736.91
2019-01-06T09:53:40.103Z,99751.11
2019-01-06T09:56:26.916Z,99730.97
2019-01-06T09:59:13.335Z,99735.38
2019-01-06T10:02:10.707Z,99734.52
2019-01-06T10:05:12.388Z,99735.47
2019-01-06T10:08:09.269Z,99723.73
2019-01-06T10:10:55.736Z,99730.52
2019-01-06T10:13:42.003Z,99727.20
2019-01-06T10:16:28.651Z,99729.76
2019-01-06T10:19:34.478Z,99727.55
2019-01-06T10:22:29.970Z,99725.30
2019-01-06T10:25:18.350Z,99730.03
2019-01-06T10:28:05.831Z,99726.01
2019-01-06T10:30:52.324Z,99727.12
2019-01-06T10:33:41.727Z,99732.55
2019-01-06T10:36:29.440Z,99732.20
2019-01-06T10:39:12.763Z,99738.77
2019-01-06T10:41:58.371Z,99733.17
2019-01-06T10:44:49.968Z,99736.81
2019-01-06T10:47:37.685Z,99738.81
2019-01-06T10:50:26.303Z,99736.89
2019-01-06T10:53:14.557Z,99740.20
2019-01-06T10:56:11.926Z,99741.73
2019-01-06T10:59:05.120Z,99742.52
2019-01-06T11:02:12.466Z,99741.73
2019-01-06T11:05:14.069Z,99741.13
2019-01-06T11:08:01.841Z,99729.47
2019-01-06T11:10:57.091Z,99732.06
2019-01-06T11:14:02.559Z,99741.18
2019-01-06T11:17:01.321Z,99741.96
2019-01-06T11:19:48.551Z,99745.03
2019-01-06T11:22:35.320Z,99741.80
2019-01-06T11:25:26.827Z,99748.64
2019-01-06T11:28:14.455Z,99739.09
2019-01-06T11:31:10.935Z,99745.23
2019-01-06T11:34:06.738Z,99744.66
2019-01-06T11:36:50.445Z,99742.02
2019-01-06T11:39:51.393Z,99743.23
2019-01-06T11:42:56.730Z,99737.72
2019-01-06T11:45:43.263Z,99742.52
2019-01-06T11:48:29.770Z,99752.64
2019-01-06T11:51:19.020Z,99750.52
2019-01-06T11:54:06.362Z,99749.51
2019-01-06T11:57:05.476Z,99747.53
2019-01-06T11:59:52.014Z,99743.63
2019-01-06T12:02:39.194Z,99745.83
2019-01-06T12:05:28.948Z,99754.92
2019-01-06T12:08:15.899Z,99747.94
2019-01-06T12:11:09.927Z,99745.77
2019-01-06T12:14:15.625Z,99742.70
2019-01-06T12:17:13.355Z,99745.17
2019-01-06T12:19:59.816Z,99743.45
2019-01-06T12:22:46.533Z,99749.33
2019-01-06T12:25:38.135Z,99746.23
2019-01-06T12:28:24.440Z,99743.03
2019-01-06T12:31:21.545Z,99747.45
2019-01-06T12:34:09.216Z,99759.07
2019-01-06T12:36:57.396Z,99753.98
2019-01-06T12:39:43.843Z,99758.55
2019-01-06T12:42:38.130Z,99748.88
2019-01-06T12:45:41.135Z,99749.55
2019-01-06T12:48:28.767Z,99752.75
2019-01-06T12:51:14.963Z,99756.00
2019-01-06T12:54:14.782Z,99748.97
2019-01-06T12:57:09.583Z,99752.28
2019-01-06T13:00:12.574Z,99755.00
2019-01-06T13:03:00.305Z,99753.55
2019-01-06T13:05:46.543Z,99764.83
2019-01-06T13:08:33.291Z,99765.17
2019-01-06T13:11:19.741Z,99768.77
2019-01-06T13:14:06.278Z,99771.50
2019-01-06T13:17:00.403Z,99776.53
2019-01-06T13:20:00.095Z,99770.50
2019-01-06T13:22:56.852Z,99775.17
2019-01-06T13:26:02.607Z,99776.85
2019-01-06T13:28:43.487Z,99778.41
2019-01-06T13:31:40.423Z,99787.75
2019-01-06T13:34:27.033Z,99789.94
2019-01-06T13:37:14.414Z,99796.55
2019-01-06T13:40:13.200Z,99792.02
2019-01-06T13:42:59.710Z,99792.20
2019-01-06T13:45:56.286Z,99796.00
2019-01-06T13:48:43.013Z,99799.85
2019-01-06T13:51:39.910Z,99804.42
2019-01-06T13:54:33.500Z,99798.66
2019-01-06T13:57:20.072Z,99808.44
2019-01-06T14:00:20.226Z,99809.44
2019-01-06T14:03:13.628Z,99807.34
2019-01-06T14:05:57.846Z,99806.47
2019-01-06T14:09:02.685Z,99811.05
2019-01-06T14:11:53.194Z,99812.27
2019-01-06T14:14:39.441Z,99811.07
2019-01-06T14:17:19.683Z,99810.23
2019-01-06T14:20:07.831Z,99818.13
2019-01-06T14:23:09.168Z,99822.99
2019-01-06T14:25:56.740Z,99820.77
2019-01-06T14:28:56.776Z,99830.81
2019-01-06T14:32:02.573Z,99828.59
2019-01-06T14:34:50.103Z,99835.08
2019-01-06T14:37:44.636Z,99832.17
2019-01-06T14:40:44.329Z,99833.53
2019-01-06T14:43:32.213Z,99833.42
2019-01-06T14:46:18.734Z,99835.35
2019-01-06T14:49:05.972Z,99835.22
2019-01-06T14:52:09.166Z,99831.47
2019-01-06T14:54:56.796Z,99828.70
2019-01-06T14:57:59.481Z,99832.80
2019-01-06T15:00:56.089Z,99835.83
2019-01-06T15:03:46.656Z,99842.80
2019-01-06T15:06:34.509Z,99841.69
2019-01-06T15:09:21.321Z,99849.51
2019-01-06T15:12:08.543Z,99851.41
2019-01-06T15:14:54.820Z,99852.83
2019-01-06T15:17:51.990Z,99845.63
2019-01-06T15:20:44.398Z,99846.31
2019-01-06T15:23:51.791Z,99854.55
2019-01-06T15:26:48.635Z,99859.33
2019-01-06T15:29:35.079Z,99863.84
2019-01-06T15:32:21.493Z,99859.00
2019-01-06T15:35:09.080Z,99857.84
2019-01-06T15:37:49.397Z,99856.82
2019-01-06T15:40:49.046Z,99861.67
2019-01-06T15:43:32.641Z,99858.34
2019-01-06T15:46:33.358Z,99861.32
2019-01-06T15:49:21.009Z,99866.16
2019-01-06T15:52:17.666Z,99861.83
2019-01-06T15:55:05.561Z,99867.34
2019-01-06T15:57:52.268Z,99868.12
2019-01-06T16:00:48.844Z,99872.27
2019-01-06T16:03:32.929Z,99876.59
2019-01-06T16:06:19.453Z,99872.03
2019-01-06T16:09:05.752Z,99870.56
2019-01-06T16:11:56.702Z,99878.27
2019-01-06T16:14:59.688Z,99882.03
2019-01-06T16:17:45.933Z,99878.41
2019-01-06T16:20:35.014Z,99876.36
2019-01-06T16:23:21.659Z,99882.95
2019-01-06T16:26:08.064Z,99878.78
2019-01-06T16:28:54.270Z,99885.80
2019-01-06T16:31:45.000Z,99882.91
2019-01-06T16:34:35.597Z,99892.38
2019-01-06T16:37:38.920Z,99893.52
2019-01-06T16:40:25.528Z,99896.64
2019-01-06T16:43:11.864Z,99903.38
2019-01-06T16:45:58.230Z,99897.89
2019-01-06T16:48:44.739Z,99898.20
2019-01-06T16:51:38.513Z,99896.48
2019-01-06T16:54:24.735Z,99899.12
2019-01-06T16:57:11.442Z,99901.48
2019-01-06T16:59:58.164Z,99904.81
2019-01-06T17:02:40.784Z,99904.42
2019-01-06T17:05:27.207Z,99906.66
2019-01-06T17:08:13.691Z,99907.54
2019-01-06T17:11:00.124Z,99905.81
2019-01-06T17:13:46.704Z,99918.23
2019-01-06T17:16:37.457Z,99908.05
2019-01-06T17:19:23.782Z,99908.48
2019-01-06T17:22:14.115Z,99907.31
2019-01-06T17:25:00.783Z,99903.56
2019-01-06T17:27:57.294Z,99897.75
2019-01-06T17:30:40.637Z,99896.20
2019-01-06T17:33:33.615Z,99893.81
2019-01-06T17:36:21.423Z,99898.81
2019-01-06T17:39:09.433Z,99897.83
2019-01-06T17:42:12.367Z,99897.05
2019-01-06T17:44:58.752Z,99900.14
2019-01-06T17:47:49.709Z,99896.39
2019-01-06T17:50:55.567Z,99901.92
2019-01-06T17:53:43.436Z,99904.22
2019-01-06T17:56:26.607Z,99906.75
2019-01-06T17:59:13.010Z,99903.78
2019-01-06T18:02:03.645Z,99903.34
2019-01-06T18:04:57.268Z,99911.77
2019-01-06T18:07:44.794Z,99911.16
2019-01-06T18:10:32.391Z,99914.63
2019-01-06T18:13:32.862Z,99920.09
2019-01-06T18:16:19.233Z,99922.11
2019-01-06T18:19:15.844Z,99921.80
2019-01-06T18:22:16.916Z,99922.19
2019-01-06T18:25:10.356Z,99921.91
2019-01-06T18:28:08.166Z,99923.19
2019-01-06T18:30:54.883Z,99922.50
2019-01-06T18:33:54.861Z,99924.87
2019-01-06T18:36:41.310Z,99932.84
2019-01-06T18:39:27.644Z,99924.03
2019-01-06T18:42:13.805Z,99929.34
2019-01-06T18:45:10.392Z,99933.45
2019-01-06T18:47:50.926Z,99934.03
2019-01-06T18:50:44.269Z,99934.37
2019-01-06T18:53:30.586Z,99932.37
2019-01-06T18:56:16.682Z,99936.30
2019-01-06T18:59:07.303Z,99937.92
2019-01-06T19:01:59.060Z,99938.91
2019-01-06T19:04:40.183Z,99936.73
2019-01-06T19:07:27.207Z,99941.25
2019-01-06T19:10:12.486Z,99945.98
2019-01-06T19:13:02.767Z,99943.09
2019-01-06T19:15:50.133Z,99945.92
2019-01-06T19:18:31.763Z,99945.35
2019-01-06T19:21:18.369Z,99950.73
2019-01-06T19:24:04.784Z,99950.83
2019-01-06T19:26:53.524Z,99947.72
2019-01-06T19:29:36.902Z,99951.17
2019-01-06T19:32:24.653Z,99949.69
2019-01-06T19:35:24.513Z,99947.76
2019-01-06T19:38:11.283Z,99952.64
2019-01-06T19:40:57.637Z,99951.52
2019-01-06T19:43:44.202Z,99947.08
2019-01-06T19:46:42.774Z,99952.11
2019-01-06T19:49:23.374Z,99960.67
2019-01-06T19:52:12.642Z,99954.93
2019-01-06T19:54:48.386Z,99958.95
2019-01-06T19:57:35.934Z,99957.84
2019-01-06T20:00:22.345Z,99956.12
2019-01-06T20:03:07.938Z,99960.05
2019-01-06T20:06:07.592Z,99952.59
2019-01-06T20:08:49.115Z,99959.81
2019-01-06T20:11:35.612Z,99959.53
2019-01-06T20:14:23.239Z,99964.18
2019-01-06T20:17:09.413Z,99960.80
2019-01-06T20:20:02.777Z,99968.26
2019-01-06T20:23:02.552Z,99970.30
2019-01-06T20:25:49.151Z,99969.80
2019-01-06T20:28:36.955Z,99964.44
2019-01-06T20:31:30.325Z,99972.30
2019-01-06T20:34:18.459Z,99974.55
2019-01-06T20:37:09.459Z,99975.84
2019-01-06T20:40:00.381Z,99972.92
2019-01-06T20:42:46.502Z,99969.25
2019-01-06T20:45:49.497Z,99972.20
2019-01-06T20:48:36.909Z,99969.73
2019-01-06T20:51:36.351Z,99969.23
2019-01-06T20:54:22.462Z,99973.66
2019-01-06T20:57:21.093Z,99973.38
2019-01-06T21:00:14.925Z,99972.32
2019-01-06T21:03:17.555Z,99974.62
2019-01-06T21:06:03.791Z,99972.56
2019-01-06T21:08:50.115Z,99971.98
2019-01-06T21:11:46.907Z,99971.28
2019-01-06T21:14:34.093Z,99976.08
2019-01-06T21:17:34.119Z,99972.34
2019-01-06T21:20:15.824Z,99971.13
2019-01-06T21:23:21.789Z,99964.20
2019-01-06T21:26:19.306Z,99965.48
2019-01-06T21:29:05.549Z,99975.23
2019-01-06T21:31:57.473Z,99972.15
2019-01-06T21:34:43.774Z,99981.67
2019-01-06T21:37:30.074Z,99977.67
2019-01-06T21:40:33.379Z,99980.70
2019-01-06T21:43:25.713Z,99979.80
2019-01-06T21:46:19.764Z,99980.11
2019-01-06T21:49:25.857Z,99980.31
2019-01-06T21:52:13.485Z,99992.86
2019-01-06T21:55:09.739Z,99985.66
2019-01-06T21:57:53.872Z,99983.27
2019-01-06T22:00:44.723Z,99980.55
2019-01-06T22:03:25.545Z,99987.41
2019-01-06T22:06:17.967Z,99985.27
2019-01-06T22:09:21.099Z,99988.54
2019-01-06T22:12:23.955Z,99988.73
2019-01-06T22:15:20.659Z,99984.12
2019-01-06T22:18:07.796Z,99984.28
2019-01-06T22:20:52.981Z,99985.84
2019-01-06T22:23:56.248Z,99982.19
2019-01-06T22:26:42.871Z,99980.75
2019-01-06T22:29:45.668Z,99978.71
2019-01-06T22:32:34.313Z,99982.06
2019-01-06T22:35:20.942Z,99980.06
2019-01-06T22:38:16.218Z,99975.77
2019-01-06T22:40:52.106Z,99984.44
2019-01-06T22:43:58.619Z,99982.15
2019-01-06T22:46:36.272Z,99984.98
2019-01-06T22:49:30.352Z,99988.31
2019-01-06T22:52:19.193Z,99985.45
2019-01-06T22:55:06.098Z,99984.18
2019-01-06T22:57:57.575Z,99981.89
2019-01-06T23:00:47.001Z,99978.11
2019-01-06T23:03:40.644Z,99979.59
2019-01-06T23:06:21.173Z,99978.08
2019-01-06T23:09:24.537Z,99979.28
2019-01-06T23:12:18.426Z,99977.45
2019-01-06T23:15:04.765Z,99979.59
2019-01-06T23:17:51.149Z,99984.20
2019-01-06T23:20:38.842Z,99983.05
2019-01-06T23:23:35.435Z,99979.59
2019-01-06T23:26:38.485Z,99980.73
2019-01-06T23:29:25.808Z,99982.98
2019-01-06T23:32:28.587Z,99982.12
2019-01-06T23:35:22.650Z,99980.30
2019-01-06T23:38:08.847Z,99989.17
2019-01-06T23:41:11.622Z,99986.94
2019-01-06T23:44:05.219Z,99983.41
2019-01-06T23:47:07.932Z,99986.37
2019-01-06T23:50:10.854Z,99990.88
2019-01-06T23:52:53.152Z,99990.20
2019-01-06T23:55:38.986Z,99990.02
2019-01-06T23:58:38.696Z,99996.94
